createdAt,value
2022-10-28T00:01:28.821Z,10.50
2022-10-28T00:06:05.628Z,10.60
2022-10-28T00:10:10.444Z,10.60
2022-10-28T00:14:13.747Z,10.60
2022-10-28T00:18:15.789Z,10.60
2022-10-28T00:22:18.858Z,10.60
2022-10-28T00:26:27.315Z,10.60
2022-10-28T00:31:31.840Z,10.60
2022-10-28T00:35:35.156Z,10.60
2022-10-28T00:39:37.383Z,10.60
2022-10-28T00:43:45.455Z,10.60
2022-10-28T00:48:04.914Z,10.60
2022-10-28T00:53:11.996Z,10.50
2022-10-28T00:57:19.115Z,10.30
2022-10-28T01:01:25.701Z,10.30
2022-10-28T01:11:29.850Z,10.10
2022-10-28T01:15:51.662Z,10.10
2022-10-28T01:20:43.332Z,10.10
2022-10-28T01:25:18.860Z,10.00
2022-10-28T01:30:05.288Z,9.90
2022-10-28T01:34:10.853Z,9.90
2022-10-28T01:39:14.138Z,10.00
2022-10-28T01:43:39.042Z,10.00
2022-10-28T01:48:05.397Z,10.00
2022-10-28T01:58:09.347Z,9.90
2022-10-28T02:02:11.301Z,9.90
2022-10-28T02:06:29.073Z,9.90
2022-10-28T02:10:37.233Z,9.80
2022-10-28T02:14:57.416Z,9.80
2022-10-28T02:19:39.872Z,9.80
2022-10-28T02:24:05.009Z,9.80
2022-10-28T02:28:56.880Z,9.80
2022-10-28T02:33:05.092Z,9.80
2022-10-28T02:37:35.036Z,9.80
2022-10-28T02:47:39.669Z,9.70
2022-10-28T02:52:02.648Z,9.60
2022-10-28T02:56:08.503Z,9.60
2022-10-28T03:00:15.462Z,9.50
2022-10-28T03:04:21.784Z,9.40
2022-10-28T03:08:51.591Z,9.20
2022-10-28T03:12:54.676Z,9.10
2022-10-28T03:16:56.642Z,9.00
2022-10-28T03:20:59.195Z,9.00
2022-10-28T03:25:01.379Z,9.10
2022-10-28T03:29:18.688Z,9.10
2022-10-28T03:33:48.917Z,9.10
2022-10-28T03:37:55.134Z,9.00
2022-10-28T03:41:57.093Z,8.90
2022-10-28T03:45:59.264Z,8.80
2022-10-28T03:50:29.979Z,8.70
2022-10-28T03:54:47.432Z,8.60
2022-10-28T03:58:50.072Z,8.60
2022-10-28T04:03:20.140Z,8.50
2022-10-28T04:08:21.119Z,8.40
2022-10-28T04:13:19.046Z,8.40
2022-10-28T04:17:22.114Z,8.40
2022-10-28T04:21:24.226Z,8.40
2022-10-28T04:25:27.745Z,8.40
2022-10-28T04:29:29.896Z,8.40
2022-10-28T04:33:57.183Z,8.30
2022-10-28T04:37:59.403Z,8.10
2022-10-28T04:42:02.708Z,8.00
2022-10-28T04:46:06.231Z,8.00
2022-10-28T04:50:33.898Z,8.10
2022-10-28T04:54:56.979Z,8.10
2022-10-28T04:58:59.578Z,8.10
2022-10-28T05:03:09.017Z,8.10
2022-10-28T05:07:12.331Z,8.00
2022-10-28T05:11:16.457Z,8.00
2022-10-28T05:15:18.512Z,7.90
2022-10-28T05:19:20.548Z,7.80
2022-10-28T05:23:27.143Z,7.70
2022-10-28T05:27:38.202Z,7.60
2022-10-28T05:31:40.118Z,7.50
2022-10-28T05:35:49.617Z,7.50
2022-10-28T05:40:17.264Z,7.70
2022-10-28T05:44:19.285Z,7.70
2022-10-28T05:48:21.634Z,7.80
2022-10-28T05:52:23.615Z,7.80
2022-10-28T05:56:26.133Z,7.90
2022-10-28T06:00:28.199Z,7.90
2022-10-28T06:04:31.142Z,7.90
2022-10-28T06:08:33.274Z,8.00
2022-10-28T06:12:59.383Z,8.10
2022-10-28T06:17:01.493Z,8.20
2022-10-28T06:21:03.879Z,8.30
2022-10-28T06:25:06.321Z,8.40
2022-10-28T06:29:11.630Z,8.40
2022-10-28T06:33:15.769Z,8.60
2022-10-28T06:37:21.811Z,8.70
2022-10-28T06:41:23.848Z,8.80
2022-10-28T06:45:27.417Z,8.90
2022-10-28T06:49:30.841Z,9.00
2022-10-28T06:59:32.302Z,9.10
2022-10-28T07:03:53.780Z,9.20
2022-10-28T07:07:56.112Z,9.40
2022-10-28T07:12:28.025Z,9.60
2022-10-28T07:16:32.075Z,9.70
2022-10-28T07:20:34.122Z,9.80
2022-10-28T07:24:36.550Z,9.90
2022-10-28T07:28:38.556Z,9.80
2022-10-28T07:32:42.719Z,9.90
2022-10-28T07:36:44.847Z,10.10
2022-10-28T07:42:06.902Z,10.10
2022-10-28T07:46:10.979Z,10.20
2022-10-28T07:50:17.851Z,10.40
2022-10-28T07:54:21.323Z,10.50
2022-10-28T07:58:23.316Z,10.70
2022-10-28T08:02:25.786Z,10.90
2022-10-28T08:06:27.826Z,11.00
2022-10-28T08:11:39.267Z,11.30
2022-10-28T08:15:41.284Z,11.40
2022-10-28T08:19:43.210Z,11.50
2022-10-28T08:24:39.050Z,11.70
2022-10-28T08:28:43.214Z,11.90
2022-10-28T08:32:45.200Z,12.00
2022-10-28T08:36:52.172Z,12.10
2022-10-28T08:41:25.241Z,12.20
2022-10-28T08:46:06.130Z,12.10
2022-10-28T08:50:18.494Z,12.20
2022-10-28T08:54:34.491Z,12.40
2022-10-28T08:58:39.374Z,12.40
2022-10-28T09:08:29.311Z,12.10
2022-10-28T09:18:37.805Z,12.60
2022-10-28T09:23:18.490Z,13.00
2022-10-28T09:27:51.975Z,13.10
2022-10-28T09:32:16.400Z,13.20
2022-10-28T09:36:34.659Z,13.40
2022-10-28T09:40:42.119Z,13.60
2022-10-28T09:45:55.308Z,13.60
2022-10-28T09:50:01.424Z,13.80
2022-10-28T09:54:03.436Z,13.90
2022-10-28T09:58:05.855Z,13.90
2022-10-28T10:02:38.520Z,13.90
2022-10-28T10:06:43.024Z,14.10
2022-10-28T10:10:48.291Z,14.10
2022-10-28T10:14:52.393Z,13.90
2022-10-28T10:18:57.919Z,14.10
2022-10-28T10:22:59.916Z,14.30
2022-10-28T10:27:20.857Z,14.30
2022-10-28T10:31:29.881Z,14.50
2022-10-28T10:36:10.836Z,14.40
2022-10-28T10:46:18.097Z,14.40
2022-10-28T10:50:38.049Z,14.50
2022-10-28T10:54:58.330Z,14.40
2022-10-28T10:59:04.001Z,14.30
2022-10-28T11:03:27.309Z,14.50
2022-10-28T11:07:30.794Z,14.60
2022-10-28T11:12:45.902Z,14.60
2022-10-28T11:17:49.948Z,14.80
2022-10-28T11:22:10.302Z,14.90
2022-10-28T11:26:16.126Z,14.90
2022-10-28T11:30:27.245Z,15.00
2022-10-28T11:34:58.662Z,15.10
2022-10-28T11:39:21.952Z,15.10
2022-10-28T11:44:06.025Z,14.90
2022-10-28T11:48:57.803Z,14.60
2022-10-28T11:53:52.896Z,14.60
2022-10-28T11:58:15.404Z,14.60
2022-10-28T12:02:52.383Z,14.60
2022-10-28T12:07:14.583Z,14.50
2022-10-28T12:11:28.905Z,14.60
2022-10-28T12:15:56.206Z,14.70
2022-10-28T12:20:28.996Z,14.60
2022-10-28T12:24:35.805Z,14.70
2022-10-28T12:28:43.836Z,15.00
2022-10-28T12:38:26.895Z,15.00
2022-10-28T12:43:19.975Z,14.90
2022-10-28T12:48:12.046Z,14.80
2022-10-28T12:52:24.427Z,14.60
2022-10-28T12:57:29.719Z,14.40
2022-10-28T13:01:35.068Z,14.40
2022-10-28T13:05:42.965Z,14.30
2022-10-28T13:10:20.536Z,14.30
2022-10-28T13:15:15.392Z,14.20
2022-10-28T13:19:46.414Z,14.10
2022-10-28T13:24:19.497Z,13.90
2022-10-28T13:28:29.362Z,13.70
2022-10-28T13:32:45.096Z,13.80
2022-10-28T13:42:18.305Z,13.70
2022-10-28T13:46:57.940Z,13.80
2022-10-28T13:51:11.881Z,13.70
2022-10-28T13:55:51.561Z,13.80
2022-10-28T14:00:15.289Z,13.70
2022-10-28T14:04:30.127Z,13.60
2022-10-28T14:08:40.204Z,13.30
2022-10-28T14:13:20.551Z,13.40
2022-10-28T14:17:30.996Z,13.40
2022-10-28T14:22:02.738Z,13.40
2022-10-28T14:26:06.339Z,13.40
2022-10-28T14:30:19.891Z,13.30
2022-10-28T14:34:42.304Z,13.30
2022-10-28T14:38:53.729Z,13.10
2022-10-28T14:43:31.147Z,12.80
2022-10-28T14:48:22.573Z,12.80
2022-10-28T14:52:24.929Z,12.80
2022-10-28T14:56:37.687Z,12.70
2022-10-28T15:01:16.488Z,12.60
2022-10-28T15:05:26.239Z,12.40
2022-10-28T15:09:55.597Z,12.40
2022-10-28T15:14:24.888Z,12.30
2022-10-28T15:18:31.312Z,12.20
2022-10-28T15:22:33.481Z,12.20
2022-10-28T15:26:36.973Z,12.20
2022-10-28T15:30:45.994Z,12.10
2022-10-28T15:34:54.016Z,11.80
2022-10-28T15:38:58.954Z,11.80
2022-10-28T15:44:04.197Z,11.70
2022-10-28T15:48:18.818Z,11.70
2022-10-28T15:52:30.752Z,11.60
2022-10-28T15:56:57.435Z,11.30
2022-10-28T16:01:01.728Z,11.20
2022-10-28T16:05:33.349Z,11.00
2022-10-28T16:09:43.436Z,10.90
2022-10-28T16:14:50.825Z,10.90
2022-10-28T16:19:25.385Z,11.00
2022-10-28T16:23:34.179Z,11.00
2022-10-28T16:28:45.485Z,10.90
2022-10-28T16:32:53.877Z,10.80
2022-10-28T16:37:24.425Z,10.80
2022-10-28T16:41:53.087Z,10.70
2022-10-28T16:46:07.370Z,10.60
2022-10-28T16:50:09.866Z,10.60
2022-10-28T16:54:13.470Z,10.70
2022-10-28T16:59:17.259Z,10.60
2022-10-28T17:03:21.670Z,10.60
2022-10-28T17:07:43.482Z,10.60
2022-10-28T17:11:45.727Z,10.60
2022-10-28T17:16:08.295Z,10.60
2022-10-28T17:20:16.747Z,10.50
2022-10-28T17:24:20.549Z,10.40
2022-10-28T17:28:35.146Z,10.20
2022-10-28T17:32:37.329Z,10.10
2022-10-28T17:36:39.561Z,9.90
2022-10-28T17:40:41.516Z,9.70
2022-10-28T17:45:05.849Z,9.60
2022-10-28T17:49:34.441Z,9.60
2022-10-28T17:53:55.531Z,9.60
2022-10-28T18:04:46.837Z,9.60
2022-10-28T18:09:15.122Z,9.60
2022-10-28T18:13:17.310Z,9.40
2022-10-28T18:17:52.296Z,9.40
2022-10-28T18:21:59.402Z,9.40
2022-10-28T18:26:17.671Z,9.40
2022-10-28T18:30:19.636Z,9.40
2022-10-28T18:34:22.033Z,9.30
2022-10-28T18:38:24.121Z,9.30
2022-10-28T18:42:57.092Z,9.30
2022-10-28T18:47:58.272Z,9.30
2022-10-28T18:52:01.131Z,9.30
2022-10-28T18:56:23.326Z,9.20
2022-10-28T19:00:30.255Z,9.10
2022-10-28T19:04:32.331Z,9.20
2022-10-28T19:08:35.297Z,9.20
2022-10-28T19:13:35.048Z,9.20
2022-10-28T19:17:41.402Z,9.30
2022-10-28T19:21:43.561Z,9.30
2022-10-28T19:32:17.218Z,9.40
2022-10-28T19:37:10.459Z,9.40
2022-10-28T19:41:15.691Z,9.40
2022-10-28T19:45:17.818Z,9.40
2022-10-28T19:49:22.398Z,9.40
2022-10-28T19:53:57.636Z,9.40
2022-10-28T19:58:00.766Z,9.40
2022-10-28T20:02:20.566Z,9.30
2022-10-28T20:12:27.410Z,9.00
2022-10-28T20:17:07.267Z,9.00
2022-10-28T20:21:35.281Z,9.00
2022-10-28T20:25:37.295Z,9.00
2022-10-28T20:30:06.415Z,9.00
2022-10-28T20:34:15.862Z,9.00
2022-10-28T20:38:18.977Z,9.00
2022-10-28T20:42:40.383Z,9.00
2022-10-28T20:46:45.067Z,8.90
2022-10-28T20:56:53.489Z,8.50
2022-10-28T21:01:09.154Z,8.50
2022-10-28T21:05:11.120Z,8.40
2022-10-28T21:09:19.919Z,8.40
2022-10-28T21:13:21.830Z,8.40
2022-10-28T21:17:26.070Z,8.40
2022-10-28T21:21:37.185Z,8.40
2022-10-28T21:25:40.167Z,8.40
2022-10-28T21:29:42.460Z,8.40
2022-10-28T21:33:46.132Z,8.50
2022-10-28T21:37:48.176Z,8.50
2022-10-28T21:42:17.566Z,8.50
2022-10-28T21:46:24.423Z,8.50
2022-10-28T21:51:37.494Z,8.50
2022-10-28T21:55:47.710Z,8.50
2022-10-28T21:59:52.276Z,8.50
2022-10-28T22:03:55.288Z,8.50
2022-10-28T22:08:03.144Z,8.50
2022-10-28T22:12:56.628Z,8.40
2022-10-28T22:22:58.268Z,8.40
2022-10-28T22:27:04.929Z,8.40
2022-10-28T22:31:09.673Z,8.30
2022-10-28T22:35:11.813Z,8.20
2022-10-28T22:39:13.760Z,8.20
2022-10-28T22:43:15.728Z,8.20
2022-10-28T22:47:18.987Z,8.20
2022-10-28T22:51:21.770Z,8.20
2022-10-28T22:56:01.247Z,8.10
2022-10-28T23:00:03.913Z,8.10
2022-10-28T23:04:11.077Z,8.00
2022-10-28T23:08:15.518Z,7.90
2022-10-28T23:12:20.677Z,7.80
2022-10-28T23:16:24.671Z,7.70
2022-10-28T23:20:42.117Z,7.60
2022-10-28T23:24:44.303Z,7.50
2022-10-28T23:28:51.014Z,7.30
2022-10-28T23:33:51.978Z,7.20
2022-10-28T23:37:54.393Z,7.30
2022-10-28T23:47:49.973Z,7.40
2022-10-28T23:52:17.833Z,7.20
2022-10-28T23:56:20.103Z,7.20
